sensor_id;sensor_type;location;lat;lon;timestamp;pressure;altitude;pressure_sealevel;temperature;humidity
55044;BME280;54902;50.420;18.854;2024-02-04T00:00:22;101248.90;;;8.08;83.17
55044;BME280;54902;50.420;18.854;2024-02-04T00:00:53;101246.17;;;8.08;83.17
55044;BME280;54902;50.420;18.854;2024-02-04T00:01:24;101248.11;;;8.06;83.15
55044;BME280;54902;50.420;18.854;2024-02-04T00:01:55;101248.90;;;8.08;83.15
55044;BME280;54902;50.420;18.854;2024-02-04T00:02:26;101248.11;;;8.06;83.14
55044;BME280;54902;50.420;18.854;2024-02-04T00:02:57;101252.58;;;8.07;83.16
55044;BME280;54902;50.420;18.854;2024-02-04T00:03:27;101251.78;;;8.05;83.17
55044;BME280;54902;50.420;18.854;2024-02-04T00:03:58;101241.80;;;8.06;83.16
55044;BME280;54902;50.420;18.854;2024-02-04T00:04:29;101254.51;;;8.05;83.17
55044;BME280;54902;50.420;18.854;2024-02-04T00:05:03;101241.91;;;8.04;83.17
55044;BME280;54902;50.420;18.854;2024-02-04T00:05:34;101250.07;;;8.04;83.19
55044;BME280;54902;50.420;18.854;2024-02-04T00:06:06;101252.80;;;8.04;83.20
55044;BME280;54902;50.420;18.854;2024-02-04T00:06:37;101256.48;;;8.03;83.20
55044;BME280;54902;50.420;18.854;2024-02-04T00:07:08;101253.75;;;8.03;83.18
55044;BME280;54902;50.420;18.854;2024-02-04T00:07:39;101245.70;;;8.02;83.21
55044;BME280;54902;50.420;18.854;2024-02-04T00:08:10;101239.79;;;7.95;83.18
55044;BME280;54902;50.420;18.854;2024-02-04T00:08:43;101246.55;;;8.02;83.23
55044;BME280;54902;50.420;18.854;2024-02-04T00:09:14;101252.96;;;8.01;83.30
55044;BME280;54902;50.420;18.854;2024-02-04T00:09:45;101245.80;;;8.00;83.36
55044;BME280;54902;50.420;18.854;2024-02-04T00:10:16;101246.66;;;8.01;83.34
55044;BME280;54902;50.420;18.854;2024-02-04T00:10:49;101250.35;;;8.00;83.34
55044;BME280;54902;50.420;18.854;2024-02-04T00:11:20;101252.21;;;7.99;83.32
55044;BME280;54902;50.420;18.854;2024-02-04T00:11:51;101260.38;;;7.99;83.30
55044;BME280;54902;50.420;18.854;2024-02-04T00:12:22;101254.04;;;7.99;83.30
55044;BME280;54902;50.420;18.854;2024-02-04T00:12:53;101253.18;;;7.98;83.31
55044;BME280;54902;50.420;18.854;2024-02-04T00:13:24;101252.32;;;7.98;83.32
55044;BME280;54902;50.420;18.854;2024-02-04T00:13:55;101254.14;;;7.97;83.33
55044;BME280;54902;50.420;18.854;2024-02-04T00:14:27;101256.87;;;7.97;83.40
55044;BME280;54902;50.420;18.854;2024-02-04T00:14:58;101247.84;;;7.97;83.46
55044;BME280;54902;50.420;18.854;2024-02-04T00:15:29;101246.98;;;7.96;83.45
55044;BME280;54902;50.420;18.854;2024-02-04T00:16:00;101258.84;;;7.95;83.46
55044;BME280;54902;50.420;18.854;2024-02-04T00:16:31;101258.84;;;7.95;83.45
55044;BME280;54902;50.420;18.854;2024-02-04T00:17:02;101255.14;;;7.96;83.42
55044;BME280;54902;50.420;18.854;2024-02-04T00:17:33;101247.95;;;7.95;83.43
55044;BME280;54902;50.420;18.854;2024-02-04T00:18:04;101258.93;;;7.94;83.49
55044;BME280;54902;50.420;18.854;2024-02-04T00:18:36;101261.66;;;7.94;83.50
55044;BME280;54902;50.420;18.854;2024-02-04T00:19:07;101261.66;;;7.94;83.51
55044;BME280;54902;50.420;18.854;2024-02-04T00:19:39;101267.09;;;7.94;83.54
55044;BME280;54902;50.420;18.854;2024-02-04T00:20:10;101260.76;;;7.93;83.53
55044;BME280;54902;50.420;18.854;2024-02-04T00:20:41;101256.32;;;7.92;83.53
55044;BME280;54902;50.420;18.854;2024-02-04T00:21:12;101256.32;;;7.92;83.60
55044;BME280;54902;50.420;18.854;2024-02-04T00:21:43;101260.87;;;7.92;83.60
55044;BME280;54902;50.420;18.854;2024-02-04T00:22:14;101257.29;;;7.91;83.57
55044;BME280;54902;50.420;18.854;2024-02-04T00:22:50;101256.39;;;7.91;83.56
55044;BME280;54902;50.420;18.854;2024-02-04T00:23:21;101255.53;;;7.90;83.55
55044;BME280;54902;50.420;18.854;2024-02-04T00:23:52;101255.53;;;7.90;83.57
55044;BME280;54902;50.420;18.854;2024-02-04T00:24:23;101250.95;;;7.91;83.57
55044;BME280;54902;50.420;18.854;2024-02-04T00:24:54;101254.67;;;7.90;83.56
55044;BME280;54902;50.420;18.854;2024-02-04T00:25:31;101240.16;;;7.89;83.59
55044;BME280;54902;50.420;18.854;2024-02-04T00:26:02;101251.05;;;7.89;83.63
55044;BME280;54902;50.420;18.854;2024-02-04T00:26:33;101252.05;;;7.88;83.62
55044;BME280;54902;50.420;18.854;2024-02-04T00:27:04;101254.78;;;7.88;83.65
55044;BME280;54902;50.420;18.854;2024-02-04T00:27:35;101252.05;;;7.88;83.65
55044;BME280;54902;50.420;18.854;2024-02-04T00:28:06;101256.60;;;7.88;83.62
55044;BME280;54902;50.420;18.854;2024-02-04T00:28:37;101250.30;;;7.87;83.62
55044;BME280;54902;50.420;18.854;2024-02-04T00:29:13;101253.98;;;7.86;83.61
55044;BME280;54902;50.420;18.854;2024-02-04T00:29:44;101253.98;;;7.86;83.60
55044;BME280;54902;50.420;18.854;2024-02-04T00:30:15;101258.56;;;7.86;83.58
55044;BME280;54902;50.420;18.854;2024-02-04T00:30:46;101257.67;;;7.85;83.56
55044;BME280;54902;50.420;18.854;2024-02-04T00:31:20;101254.95;;;7.85;83.58
55044;BME280;54902;50.420;18.854;2024-02-04T00:31:51;101258.64;;;7.84;83.61
55044;BME280;54902;50.420;18.854;2024-02-04T00:32:22;101253.20;;;7.84;83.59
55044;BME280;54902;50.420;18.854;2024-02-04T00:32:53;101261.35;;;7.84;83.61
55044;BME280;54902;50.420;18.854;2024-02-04T00:33:24;101261.35;;;7.84;83.64
55044;BME280;54902;50.420;18.854;2024-02-04T00:33:55;101254.20;;;7.83;83.63
55044;BME280;54902;50.420;18.854;2024-02-04T00:34:26;101253.30;;;7.83;83.65
55044;BME280;54902;50.420;18.854;2024-02-04T00:34:57;101248.76;;;7.83;83.64
55044;BME280;54902;50.420;18.854;2024-02-04T00:35:29;101244.28;;;7.82;83.66
55044;BME280;54902;50.420;18.854;2024-02-04T00:36:00;101246.04;;;7.83;83.66
55044;BME280;54902;50.420;18.854;2024-02-04T00:36:31;101243.42;;;7.82;83.65
55044;BME280;54902;50.420;18.854;2024-02-04T00:37:02;101240.70;;;7.82;83.66
55044;BME280;54902;50.420;18.854;2024-02-04T00:37:33;101246.13;;;7.82;83.66
55044;BME280;54902;50.420;18.854;2024-02-04T00:38:04;101238.05;;;7.80;83.46
55044;BME280;54902;50.420;18.854;2024-02-04T00:38:35;101244.38;;;7.81;83.66
55044;BME280;54902;50.420;18.854;2024-02-04T00:39:06;101227.17;;;7.80;83.67
55044;BME280;54902;50.420;18.854;2024-02-04T00:39:38;101238.05;;;7.80;83.68
55044;BME280;54902;50.420;18.854;2024-02-04T00:40:10;101246.21;;;7.80;83.66
55044;BME280;54902;50.420;18.854;2024-02-04T00:40:41;101248.93;;;7.80;83.68
55044;BME280;54902;50.420;18.854;2024-02-04T00:41:12;101238.05;;;7.80;83.68
55044;BME280;54902;50.420;18.854;2024-02-04T00:41:43;101238.05;;;7.80;83.69
55044;BME280;54902;50.420;18.854;2024-02-04T00:42:14;101239.91;;;7.80;83.65
55044;BME280;54902;50.420;18.854;2024-02-04T00:42:45;101234.47;;;7.80;83.70
55044;BME280;54902;50.420;18.854;2024-02-04T00:43:16;101244.49;;;7.79;83.70
55044;BME280;54902;50.420;18.854;2024-02-04T00:43:47;101233.62;;;7.79;83.72
55044;BME280;54902;50.420;18.854;2024-02-04T00:44:18;101234.47;;;7.80;83.81
55044;BME280;54902;50.420;18.854;2024-02-04T00:44:49;101228.17;;;7.79;83.89
55044;BME280;54902;50.420;18.854;2024-02-04T00:45:20;101240.77;;;7.80;83.95
55044;BME280;54902;50.420;18.854;2024-02-04T00:45:51;101236.33;;;7.79;83.96
55044;BME280;54902;50.420;18.854;2024-02-04T00:46:24;101237.20;;;7.80;83.95
55044;BME280;54902;50.420;18.854;2024-02-04T00:46:55;101238.16;;;7.79;83.96
55044;BME280;54902;50.420;18.854;2024-02-04T00:47:26;101238.16;;;7.79;83.94
55044;BME280;54902;50.420;18.854;2024-02-04T00:47:57;101228.17;;;7.79;83.95
55044;BME280;54902;50.420;18.854;2024-02-04T00:48:28;101221.95;;;7.77;83.98
55044;BME280;54902;50.420;18.854;2024-02-04T00:48:59;101234.47;;;7.80;83.98
55044;BME280;54902;50.420;18.854;2024-02-04T00:49:30;101234.58;;;7.78;83.95
55044;BME280;54902;50.420;18.854;2024-02-04T00:50:01;101224.66;;;7.77;83.93
55044;BME280;54902;50.420;18.854;2024-02-04T00:50:32;101223.70;;;7.78;83.91
55044;BME280;54902;50.420;18.854;2024-02-04T00:51:03;101222.84;;;7.78;83.93
55044;BME280;54902;50.420;18.854;2024-02-04T00:51:35;101223.70;;;7.78;83.94
55044;BME280;54902;50.420;18.854;2024-02-04T00:52:05;101231.86;;;7.78;83.93
55044;BME280;54902;50.420;18.854;2024-02-04T00:52:38;101234.58;;;7.78;83.92
55044;BME280;54902;50.420;18.854;2024-02-04T00:53:09;101223.80;;;7.77;83.97
55044;BME280;54902;50.420;18.854;2024-02-04T00:53:40;101240.88;;;7.79;83.96
55044;BME280;54902;50.420;18.854;2024-02-04T00:54:12;101231.07;;;7.76;83.98
55044;BME280;54902;50.420;18.854;2024-02-04T00:54:43;101239.16;;;7.78;83.99
55044;BME280;54902;50.420;18.854;2024-02-04T00:55:13;101238.27;;;7.77;84.00
55044;BME280;54902;50.420;18.854;2024-02-04T00:55:44;101240.98;;;7.77;84.01
55044;BME280;54902;50.420;18.854;2024-02-04T00:56:15;101237.41;;;7.77;84.02
55044;BME280;54902;50.420;18.854;2024-02-04T00:56:46;101235.54;;;7.77;84.00
55044;BME280;54902;50.420;18.854;2024-02-04T00:57:17;101243.70;;;7.77;84.04
55044;BME280;54902;50.420;18.854;2024-02-04T00:57:48;101235.54;;;7.77;84.04
55044;BME280;54902;50.420;18.854;2024-02-04T00:58:19;101231.96;;;7.77;84.04
55044;BME280;54902;50.420;18.854;2024-02-04T00:58:50;101234.68;;;7.77;84.03
55044;BME280;54902;50.420;18.854;2024-02-04T00:59:21;101238.27;;;7.77;84.01
55044;BME280;54902;50.420;18.854;2024-02-04T00:59:53;101231.07;;;7.76;84.02
55044;BME280;54902;50.420;18.854;2024-02-04T01:00:24;101220.20;;;7.76;83.99
55044;BME280;54902;50.420;18.854;2024-02-04T01:00:54;101231.96;;;7.77;84.00
55044;BME280;54902;50.420;18.854;2024-02-04T01:01:25;101227.49;;;7.76;83.98
55044;BME280;54902;50.420;18.854;2024-02-04T01:01:57;101224.77;;;7.76;83.98
55044;BME280;54902;50.420;18.854;2024-02-04T01:02:29;101230.10;;;7.77;84.01
55044;BME280;54902;50.420;18.854;2024-02-04T01:03:01;101228.34;;;7.76;84.03
55044;BME280;54902;50.420;18.854;2024-02-04T01:03:32;101221.19;;;7.75;84.00
55044;BME280;54902;50.420;18.854;2024-02-04T01:04:03;101222.91;;;7.76;84.01
55044;BME280;54902;50.420;18.854;2024-02-04T01:04:34;101230.31;;;7.74;84.00
55044;BME280;54902;50.420;18.854;2024-02-04T01:05:05;101225.63;;;7.76;84.02
55044;BME280;54902;50.420;18.854;2024-02-04T01:05:36;101209.05;;;7.67;83.98
55044;BME280;54902;50.420;18.854;2024-02-04T01:06:07;101220.20;;;7.76;83.99
55044;BME280;54902;50.420;18.854;2024-02-04T01:06:38;101221.19;;;7.75;83.99
55044;BME280;54902;50.420;18.854;2024-02-04T01:07:10;101215.75;;;7.75;83.98
55044;BME280;54902;50.420;18.854;2024-02-04T01:07:40;101224.88;;;7.74;83.98
55044;BME280;54902;50.420;18.854;2024-02-04T01:08:11;101216.72;;;7.74;83.99
55044;BME280;54902;50.420;18.854;2024-02-04T01:08:42;101224.88;;;7.74;83.99
55044;BME280;54902;50.420;18.854;2024-02-04T01:09:13;101227.60;;;7.74;84.01
55044;BME280;54902;50.420;18.854;2024-02-04T01:09:44;101224.88;;;7.74;84.04
55044;BME280;54902;50.420;18.854;2024-02-04T01:10:15;101221.26;;;7.74;84.11
55044;BME280;54902;50.420;18.854;2024-02-04T01:10:46;101214.86;;;7.75;84.13
55044;BME280;54902;50.420;18.854;2024-02-04T01:11:17;101213.10;;;7.74;84.23
55044;BME280;54902;50.420;18.854;2024-02-04T01:11:48;101222.16;;;7.74;84.23
55044;BME280;54902;50.420;18.854;2024-02-04T01:12:19;101216.72;;;7.74;84.21
55044;BME280;54902;50.420;18.854;2024-02-04T01:12:50;101225.84;;;7.73;84.20
55044;BME280;54902;50.420;18.854;2024-02-04T01:13:21;101227.60;;;7.74;84.20
55044;BME280;54902;50.420;18.854;2024-02-04T01:13:52;101214.96;;;7.73;84.24
55044;BME280;54902;50.420;18.854;2024-02-04T01:14:24;101223.98;;;7.74;84.21
55044;BME280;54902;50.420;18.854;2024-02-04T01:14:55;101223.12;;;7.73;84.22
55044;BME280;54902;50.420;18.854;2024-02-04T01:15:26;101209.52;;;7.73;84.23
55044;BME280;54902;50.420;18.854;2024-02-04T01:15:57;101210.39;;;7.74;84.22
55044;BME280;54902;50.420;18.854;2024-02-04T01:16:28;101210.39;;;7.74;84.23
55044;BME280;54902;50.420;18.854;2024-02-04T01:17:00;101206.80;;;7.73;84.24
55044;BME280;54902;50.420;18.854;2024-02-04T01:17:31;101214.96;;;7.73;84.28
55044;BME280;54902;50.420;18.854;2024-02-04T01:18:04;101207.66;;;7.74;84.28
55044;BME280;54902;50.420;18.854;2024-02-04T01:18:35;101211.39;;;7.73;84.30
55044;BME280;54902;50.420;18.854;2024-02-04T01:19:06;101207.77;;;7.72;84.30
55044;BME280;54902;50.420;18.854;2024-02-04T01:19:37;101204.08;;;7.73;84.29
55044;BME280;54902;50.420;18.854;2024-02-04T01:20:09;101207.66;;;7.74;84.30
55044;BME280;54902;50.420;18.854;2024-02-04T01:20:40;101219.55;;;7.73;84.32
55044;BME280;54902;50.420;18.854;2024-02-04T01:21:11;101214.10;;;7.73;84.31
55044;BME280;54902;50.420;18.854;2024-02-04T01:21:42;101206.91;;;7.72;84.31
55044;BME280;54902;50.420;18.854;2024-02-04T01:22:15;101214.10;;;7.73;84.31
55044;BME280;54902;50.420;18.854;2024-02-04T01:22:46;101208.66;;;7.73;84.35
55044;BME280;54902;50.420;18.854;2024-02-04T01:23:16;101199.61;;;7.72;84.37
55044;BME280;54902;50.420;18.854;2024-02-04T01:23:48;101194.49;;;7.68;84.39
55044;BME280;54902;50.420;18.854;2024-02-04T01:24:19;101204.20;;;7.72;84.40
55044;BME280;54902;50.420;18.854;2024-02-04T01:24:50;101209.63;;;7.72;84.40
55044;BME280;54902;50.420;18.854;2024-02-04T01:25:21;101195.35;;;7.68;84.24
55044;BME280;54902;50.420;18.854;2024-02-04T01:25:52;101198.76;;;7.72;84.37
55044;BME280;54902;50.420;18.854;2024-02-04T01:26:24;101196.89;;;7.72;84.37
55044;BME280;54902;50.420;18.854;2024-02-04T01:26:55;101194.17;;;7.72;84.36
55044;BME280;54902;50.420;18.854;2024-02-04T01:27:26;101191.45;;;7.72;84.38
55044;BME280;54902;50.420;18.854;2024-02-04T01:27:57;101189.73;;;7.71;84.38
55044;BME280;54902;50.420;18.854;2024-02-04T01:28:28;101188.84;;;7.71;84.39
55044;BME280;54902;50.420;18.854;2024-02-04T01:28:58;101184.30;;;7.71;84.40
55044;BME280;54902;50.420;18.854;2024-02-04T01:29:29;101189.73;;;7.71;84.41
55044;BME280;54902;50.420;18.854;2024-02-04T01:30:01;101193.41;;;7.70;84.44
55044;BME280;54902;50.420;18.854;2024-02-04T01:30:31;101193.41;;;7.70;84.44
55044;BME280;54902;50.420;18.854;2024-02-04T01:31:03;101191.56;;;7.71;84.43
55044;BME280;54902;50.420;18.854;2024-02-04T01:31:34;101189.73;;;7.71;84.42
55044;BME280;54902;50.420;18.854;2024-02-04T01:32:05;101187.98;;;7.70;84.41
55044;BME280;54902;50.420;18.854;2024-02-04T01:32:36;101193.41;;;7.70;84.40
55044;BME280;54902;50.420;18.854;2024-02-04T01:33:07;101194.27;;;7.71;84.41
55044;BME280;54902;50.420;18.854;2024-02-04T01:33:38;101194.27;;;7.71;84.46
55044;BME280;54902;50.420;18.854;2024-02-04T01:34:09;101197.89;;;7.71;84.47
55044;BME280;54902;50.420;18.854;2024-02-04T01:34:40;101200.69;;;7.70;84.45
55044;BME280;54902;50.420;18.854;2024-02-04T01:35:11;101206.05;;;7.71;84.47
55044;BME280;54902;50.420;18.854;2024-02-04T01:35:42;101204.30;;;7.70;84.49
55044;BME280;54902;50.420;18.854;2024-02-04T01:36:13;101222.36;;;7.71;84.56
55044;BME280;54902;50.420;18.854;2024-02-04T01:36:44;101226.91;;;7.71;84.63
55044;BME280;54902;50.420;18.854;2024-02-04T01:37:15;101210.59;;;7.71;84.64
55044;BME280;54902;50.420;18.854;2024-02-04T01:37:46;101221.47;;;7.71;84.70
55044;BME280;54902;50.420;18.854;2024-02-04T01:38:19;101226.80;;;7.72;84.75
55044;BME280;54902;50.420;18.854;2024-02-04T01:38:50;101239.54;;;7.72;84.74
55044;BME280;54902;50.420;18.854;2024-02-04T01:39:21;101228.67;;;7.72;84.78
55044;BME280;54902;50.420;18.854;2024-02-04T01:39:52;101228.67;;;7.72;84.87
55044;BME280;54902;50.420;18.854;2024-02-04T01:40:23;101234.95;;;7.72;84.86
55044;BME280;54902;50.420;18.854;2024-02-04T01:40:53;101224.09;;;7.72;84.83
55044;BME280;54902;50.420;18.854;2024-02-04T01:41:25;101224.09;;;7.72;84.82
55044;BME280;54902;50.420;18.854;2024-02-04T01:41:58;101217.31;;;7.65;84.86
55044;BME280;54902;50.420;18.854;2024-02-04T01:42:29;101224.09;;;7.72;84.89
55044;BME280;54902;50.420;18.854;2024-02-04T01:43:00;101234.95;;;7.72;84.90
55044;BME280;54902;50.420;18.854;2024-02-04T01:43:31;101254.00;;;7.72;84.89
55044;BME280;54902;50.420;18.854;2024-02-04T01:44:02;101262.16;;;7.72;84.94
55044;BME280;54902;50.420;18.854;2024-02-04T01:44:33;101256.72;;;7.72;85.02
55044;BME280;54902;50.420;18.854;2024-02-04T01:45:04;101263.05;;;7.73;85.14
55044;BME280;54902;50.420;18.854;2024-02-04T01:45:36;101276.55;;;7.74;85.30
55044;BME280;54902;50.420;18.854;2024-02-04T01:46:07;101282.84;;;7.75;85.33
55044;BME280;54902;50.420;18.854;2024-02-04T01:46:39;101265.66;;;7.74;85.33
55044;BME280;54902;50.420;18.854;2024-02-04T01:47:11;101256.55;;;7.75;85.33
55044;BME280;54902;50.420;18.854;2024-02-04T01:47:43;101261.98;;;7.75;85.38
55044;BME280;54902;50.420;18.854;2024-02-04T01:48:14;101256.55;;;7.75;85.51
55044;BME280;54902;50.420;18.854;2024-02-04T01:48:46;101266.42;;;7.76;85.60
55044;BME280;54902;50.420;18.854;2024-02-04T01:49:17;101265.46;;;7.77;85.66
55044;BME280;54902;50.420;18.854;2024-02-04T01:49:48;101259.05;;;7.78;85.78
55044;BME280;54902;50.420;18.854;2024-02-04T01:50:19;101268.07;;;7.79;85.82
55044;BME280;54902;50.420;18.854;2024-02-04T01:50:53;101274.40;;;7.79;85.81
55044;BME280;54902;50.420;18.854;2024-02-04T01:51:25;101283.42;;;7.80;85.88
55044;BME280;54902;50.420;18.854;2024-02-04T01:51:57;101276.13;;;7.80;85.88
55044;BME280;54902;50.420;18.854;2024-02-04T01:52:30;101271.58;;;7.81;85.98
55044;BME280;54902;50.420;18.854;2024-02-04T01:53:03;101267.97;;;7.80;86.03
55044;BME280;54902;50.420;18.854;2024-02-04T01:53:35;101267.97;;;7.80;86.04
55044;BME280;54902;50.420;18.854;2024-02-04T01:54:08;101267.00;;;7.81;85.99
55044;BME280;54902;50.420;18.854;2024-02-04T01:54:39;101256.13;;;7.81;85.98
55044;BME280;54902;50.420;18.854;2024-02-04T01:55:13;101269.73;;;7.81;85.90
55044;BME280;54902;50.420;18.854;2024-02-04T01:55:44;101261.56;;;7.81;85.90
55044;BME280;54902;50.420;18.854;2024-02-04T01:56:15;101264.29;;;7.81;85.89
55044;BME280;54902;50.420;18.854;2024-02-04T01:56:49;101260.70;;;7.81;85.82
55044;BME280;54902;50.420;18.854;2024-02-04T01:57:23;101261.56;;;7.81;85.77
55044;BME280;54902;50.420;18.854;2024-02-04T01:57:55;101255.27;;;7.81;85.72
55044;BME280;54902;50.420;18.854;2024-02-04T01:58:26;101259.80;;;7.80;85.65
55044;BME280;54902;50.420;18.854;2024-02-04T01:58:59;101267.12;;;7.80;85.58
55044;BME280;54902;50.420;18.854;2024-02-04T01:59:30;101258.95;;;7.80;85.50
55044;BME280;54902;50.420;18.854;2024-02-04T02:00:02;101252.66;;;7.79;85.45
55044;BME280;54902;50.420;18.854;2024-02-04T02:00:34;101263.53;;;7.79;85.40
55044;BME280;54902;50.420;18.854;2024-02-04T02:01:05;101258.09;;;7.79;85.36
55044;BME280;54902;50.420;18.854;2024-02-04T02:01:37;101251.75;;;7.79;85.30
55044;BME280;54902;50.420;18.854;2024-02-04T02:02:08;101263.53;;;7.79;85.25
55044;BME280;54902;50.420;18.854;2024-02-04T02:02:40;101259.92;;;7.79;85.16
55044;BME280;54902;50.420;18.854;2024-02-04T02:03:12;101261.77;;;7.78;85.05
55044;BME280;54902;50.420;18.854;2024-02-04T02:03:43;101268.07;;;7.79;84.95
55044;BME280;54902;50.420;18.854;2024-02-04T02:04:14;101258.09;;;7.79;84.84
55044;BME280;54902;50.420;18.854;2024-02-04T02:04:46;101261.77;;;7.78;84.78
55044;BME280;54902;50.420;18.854;2024-02-04T02:05:18;101269.83;;;7.80;84.70
55044;BME280;54902;50.420;18.854;2024-02-04T02:05:49;101271.69;;;7.79;84.63
55044;BME280;54902;50.420;18.854;2024-02-04T02:06:21;101273.52;;;7.79;84.55
55044;BME280;54902;50.420;18.854;2024-02-04T02:06:55;101270.69;;;7.80;84.50
55044;BME280;54902;50.420;18.854;2024-02-04T02:07:26;101258.09;;;7.79;84.46
55044;BME280;54902;50.420;18.854;2024-02-04T02:07:58;101258.95;;;7.80;84.47
55044;BME280;54902;50.420;18.854;2024-02-04T02:08:30;101265.26;;;7.80;84.44
55044;BME280;54902;50.420;18.854;2024-02-04T02:09:02;101265.26;;;7.80;84.43
55044;BME280;54902;50.420;18.854;2024-02-04T02:09:33;101266.25;;;7.79;84.41
55044;BME280;54902;50.420;18.854;2024-02-04T02:10:05;101257.20;;;7.79;84.40
55044;BME280;54902;50.420;18.854;2024-02-04T02:10:40;101259.05;;;7.78;84.39
55044;BME280;54902;50.420;18.854;2024-02-04T02:11:25;101254.58;;;7.77;84.38
55044;BME280;54902;50.420;18.854;2024-02-04T02:13:24;101260.92;;;7.78;84.44
55044;BME280;54902;50.420;18.854;2024-02-04T02:14:03;101262.73;;;7.77;84.46
55044;BME280;54902;50.420;18.854;2024-02-04T02:14:42;101260.01;;;7.77;84.45
55044;BME280;54902;50.420;18.854;2024-02-04T02:15:17;101248.28;;;7.77;84.44
55044;BME280;54902;50.420;18.854;2024-02-04T02:15:56;101263.71;;;7.76;84.41
55044;BME280;54902;50.420;18.854;2024-02-04T02:16:31;101261.98;;;7.75;84.41
55044;BME280;54902;50.420;18.854;2024-02-04T02:17:07;101271.11;;;7.74;84.40
55044;BME280;54902;50.420;18.854;2024-02-04T02:18:37;101263.91;;;7.73;84.40
55044;BME280;54902;50.420;18.854;2024-02-04T02:19:15;101267.59;;;7.72;84.39
55044;BME280;54902;50.420;18.854;2024-02-04T02:19:54;101267.59;;;7.72;84.42
55044;BME280;54902;50.420;18.854;2024-02-04T02:20:36;101272.18;;;7.72;84.42
55044;BME280;54902;50.420;18.854;2024-02-04T02:22:06;101264.12;;;7.70;84.45
55044;BME280;54902;50.420;18.854;2024-02-04T02:22:44;101275.85;;;7.71;84.45
55044;BME280;54902;50.420;18.854;2024-02-04T02:23:24;101271.39;;;7.70;84.40
55044;BME280;54902;50.420;18.854;2024-02-04T02:24:09;101256.94;;;7.69;84.43
55044;BME280;54902;50.420;18.854;2024-02-04T02:24:40;101261.40;;;7.70;84.37
55044;BME280;54902;50.420;18.854;2024-02-04T02:25:13;101257.79;;;7.70;84.26
55044;BME280;54902;50.420;18.854;2024-02-04T02:25:46;101267.80;;;7.69;84.18
55044;BME280;54902;50.420;18.854;2024-02-04T02:26:17;101270.52;;;7.69;84.15
55044;BME280;54902;50.420;18.854;2024-02-04T02:26:52;101252.45;;;7.68;84.13
55044;BME280;54902;50.420;18.854;2024-02-04T02:27:24;101247.91;;;7.69;84.13
55044;BME280;54902;50.420;18.854;2024-02-04T02:27:55;101258.88;;;7.67;84.09
55044;BME280;54902;50.420;18.854;2024-02-04T02:28:26;101270.63;;;7.68;84.10
55044;BME280;54902;50.420;18.854;2024-02-04T02:28:57;101269.76;;;7.67;84.10
55044;BME280;54902;50.420;18.854;2024-02-04T02:29:28;101262.57;;;7.66;84.06
55044;BME280;54902;50.420;18.854;2024-02-04T02:29:59;101265.29;;;7.66;84.05
55044;BME280;54902;50.420;18.854;2024-02-04T02:30:30;101257.24;;;7.65;84.07
55044;BME280;54902;50.420;18.854;2024-02-04T02:31:01;101266.25;;;7.65;84.08
55044;BME280;54902;50.420;18.854;2024-02-04T02:31:32;101257.13;;;7.66;84.02
55044;BME280;54902;50.420;18.854;2024-02-04T02:32:04;101257.13;;;7.66;83.95
55044;BME280;54902;50.420;18.854;2024-02-04T02:32:35;101258.09;;;7.65;83.84
55044;BME280;54902;50.420;18.854;2024-02-04T02:33:07;101257.24;;;7.65;83.81
55044;BME280;54902;50.420;18.854;2024-02-04T02:33:39;101255.38;;;7.65;83.75
55044;BME280;54902;50.420;18.854;2024-02-04T02:34:11;101258.09;;;7.65;83.68
55044;BME280;54902;50.420;18.854;2024-02-04T02:34:42;101254.51;;;7.65;83.58
55044;BME280;54902;50.420;18.854;2024-02-04T02:35:15;101258.09;;;7.65;83.49
55044;BME280;54902;50.420;18.854;2024-02-04T02:35:51;101260.06;;;7.63;83.43
55044;BME280;54902;50.420;18.854;2024-02-04T02:36:26;101268.22;;;7.63;83.37
55044;BME280;54902;50.420;18.854;2024-02-04T02:39:15;101233.94;;;7.61;83.20
55044;BME280;54902;50.420;18.854;2024-02-04T02:40:00;101227.60;;;7.60;83.14
55044;BME280;54902;50.420;18.854;2024-02-04T02:40:58;101252.08;;;7.60;83.13
55044;BME280;54902;50.420;18.854;2024-02-04T02:41:20;101239.44;;;7.59;83.11
55044;BME280;54902;50.420;18.854;2024-02-04T02:41:55;101235.86;;;7.59;83.11
55044;BME280;54902;50.420;18.854;2024-02-04T02:42:28;101236.83;;;7.58;83.10
55044;BME280;54902;50.420;18.854;2024-02-04T02:43:02;101233.24;;;7.57;83.14
55044;BME280;54902;50.420;18.854;2024-02-04T02:43:34;101234.22;;;7.56;83.12
55044;BME280;54902;50.420;18.854;2024-02-04T02:44:07;101228.78;;;7.56;83.08
55044;BME280;54902;50.420;18.854;2024-02-04T02:44:39;101230.63;;;7.56;83.09
55044;BME280;54902;50.420;18.854;2024-02-04T02:45:11;101229.73;;;7.55;83.08
55044;BME280;54902;50.420;18.854;2024-02-04T02:45:43;101232.46;;;7.55;83.07
55044;BME280;54902;50.420;18.854;2024-02-04T02:46:16;101238.00;;;7.54;83.05
55044;BME280;54902;50.420;18.854;2024-02-04T02:46:47;101239.86;;;7.53;83.06
55044;BME280;54902;50.420;18.854;2024-02-04T02:47:19;101243.54;;;7.52;82.96
55044;BME280;54902;50.420;18.854;2024-02-04T02:47:52;101235.38;;;7.52;83.07
55044;BME280;54902;50.420;18.854;2024-02-04T02:48:24;101236.34;;;7.51;83.09
55044;BME280;54902;50.420;18.854;2024-02-04T02:48:56;101230.91;;;7.51;83.06
55044;BME280;54902;50.420;18.854;2024-02-04T02:49:27;101242.67;;;7.52;83.07
55044;BME280;54902;50.420;18.854;2024-02-04T02:50:00;101243.64;;;7.51;83.05
55044;BME280;54902;50.420;18.854;2024-02-04T02:50:31;101237.34;;;7.51;83.05
55044;BME280;54902;50.420;18.854;2024-02-04T02:51:05;101232.02;;;7.49;83.06
55044;BME280;54902;50.420;18.854;2024-02-04T02:51:36;101237.44;;;7.49;83.06
55044;BME280;54902;50.420;18.854;2024-02-04T02:52:07;101246.46;;;7.50;83.07
55044;BME280;54902;50.420;18.854;2024-02-04T02:52:38;101237.52;;;7.48;83.08